createdAt,value
2023-01-25T00:03:26.742Z,101851.09
2023-01-25T00:07:28.005Z,101857.16
2023-01-25T00:12:14.074Z,101856.06
2023-01-25T00:20:28.867Z,101841.31
2023-01-25T00:25:10.850Z,101858.47
2023-01-25T01:56:27.208Z,101860.31
2023-01-25T02:01:15.284Z,101857.22
2023-01-25T02:18:27.446Z,101855.16
2023-01-25T02:36:11.335Z,101850.53
2023-01-25T02:40:23.714Z,101840.75
2023-01-25T02:49:10.099Z,101838.13
2023-01-25T03:02:20.295Z,101819.34
2023-01-25T03:06:22.105Z,101810.91
2023-01-25T03:18:44.159Z,101807.22
2023-01-25T03:41:23.577Z,101793.22
2023-01-25T03:49:49.682Z,101809.13
2023-01-25T03:54:07.803Z,101807.25
2023-01-25T04:10:39.217Z,101802.84
2023-01-25T04:15:05.650Z,101787.38
2023-01-25T04:31:21.533Z,101793.59
2023-01-25T04:52:27.050Z,101809.88
2023-01-25T05:01:11.072Z,101811.75
2023-01-25T05:18:10.899Z,101822.69
2023-01-25T05:31:23.654Z,101814.84
2023-01-25T05:35:11.665Z,101813.44
2023-01-25T05:38:18.909Z,101814.63
2023-01-25T05:41:26.331Z,101815.81
2023-01-25T05:44:30.284Z,101814.25
2023-01-25T05:47:34.915Z,101823.06
2023-01-25T05:50:39.684Z,101822.56
2023-01-25T05:53:48.826Z,101828.44
2023-01-25T05:56:53.293Z,101821.63
2023-01-25T05:59:59.397Z,101825.34
2023-01-25T06:03:04.563Z,101826.03
2023-01-25T06:06:14.800Z,101829.13
2023-01-25T06:09:19.687Z,101807.50
2023-01-25T06:12:28.767Z,101825.66
2023-01-25T06:15:37.862Z,101827.44
2023-01-25T06:19:02.027Z,101831.84
2023-01-25T06:22:19.303Z,101831.63
2023-01-25T06:25:23.546Z,101831.38
2023-01-25T06:28:27.114Z,101830.53
2023-01-25T06:31:30.454Z,101820.56
2023-01-25T06:34:33.928Z,101841.38
2023-01-25T06:37:37.297Z,101842.91
2023-01-25T06:40:41.809Z,101816.50
2023-01-25T06:43:45.985Z,101847.81
2023-01-25T06:46:49.287Z,101831.84
2023-01-25T06:49:53.108Z,101816.88
2023-01-25T06:52:57.735Z,101840.66
2023-01-25T06:56:06.045Z,101851.38
2023-01-25T06:59:13.454Z,101845.28
2023-01-25T07:02:18.486Z,101856.59
2023-01-25T07:05:23.062Z,101850.38
2023-01-25T07:08:27.203Z,101854.78
2023-01-25T07:11:35.248Z,101833.03
2023-01-25T07:14:43.880Z,101829.69
2023-01-25T07:17:50.217Z,101834.78
2023-01-25T07:21:04.742Z,101831.94
2023-01-25T07:24:14.988Z,101841.19
2023-01-25T07:27:19.721Z,101827.16
2023-01-25T07:30:24.859Z,101849.88
2023-01-25T07:33:32.587Z,101843.41
2023-01-25T07:36:42.596Z,101833.41
2023-01-25T07:39:52.605Z,101845.56
2023-01-25T07:42:58.971Z,101847.34
2023-01-25T07:46:08.492Z,101842.91
2023-01-25T07:49:12.584Z,101848.69
2023-01-25T07:52:16.283Z,101841.53
2023-01-25T07:55:21.156Z,101846.22
2023-01-25T07:58:26.536Z,101842.44
2023-01-25T08:01:36.912Z,101838.88
2023-01-25T08:04:43.970Z,101841.72
2023-01-25T08:07:50.009Z,101833.00
2023-01-25T08:10:55.571Z,101838.56
2023-01-25T08:14:02.857Z,101839.69
2023-01-25T08:17:08.253Z,101842.41
2023-01-25T08:20:15.099Z,101840.06
2023-01-25T08:23:23.032Z,101842.75
2023-01-25T08:26:27.325Z,101829.88
2023-01-25T08:29:32.089Z,101838.63
2023-01-25T08:32:38.273Z,101834.41
2023-01-25T08:35:44.084Z,101836.78
2023-01-25T08:38:48.933Z,101824.03
2023-01-25T08:41:52.533Z,101819.25
2023-01-25T08:44:58.147Z,101832.13
2023-01-25T08:48:02.463Z,101823.09
2023-01-25T08:51:09.086Z,101814.19
2023-01-25T08:54:14.546Z,101810.78
2023-01-25T08:57:22.125Z,101805.38
2023-01-25T09:00:27.492Z,101810.97
2023-01-25T09:03:32.740Z,101821.94
2023-01-25T09:06:37.151Z,101826.47
2023-01-25T09:09:41.212Z,101811.97
2023-01-25T09:12:46.679Z,101816.25
2023-01-25T09:15:54.005Z,101820.28
2023-01-25T09:19:00.220Z,101812.63
2023-01-25T09:22:04.744Z,101815.69
2023-01-25T09:25:09.511Z,101808.03
2023-01-25T09:28:12.843Z,101798.41
2023-01-25T09:31:22.127Z,101792.31
2023-01-25T09:34:54.638Z,101804.09
2023-01-25T09:38:02.369Z,101802.97
2023-01-25T09:41:27.550Z,101797.56
2023-01-25T09:44:53.336Z,101792.00
2023-01-25T09:48:06.886Z,101793.72
2023-01-25T09:51:26.785Z,101792.75
2023-01-25T09:54:42.261Z,101782.91
2023-01-25T09:57:55.340Z,101777.66
2023-01-25T10:01:39.045Z,101782.22
2023-01-25T10:04:44.894Z,101764.09
2023-01-25T10:08:05.526Z,101757.28
2023-01-25T10:11:31.208Z,101747.97
2023-01-25T10:14:36.094Z,101754.75
2023-01-25T10:17:42.331Z,101760.75
2023-01-25T10:21:20.033Z,101745.59
2023-01-25T10:24:41.017Z,101744.53
2023-01-25T10:27:48.802Z,101739.13
2023-01-25T10:31:08.398Z,101736.50
2023-01-25T10:34:55.863Z,101724.63
2023-01-25T10:38:11.153Z,101726.03
2023-01-25T10:41:27.340Z,101722.03
2023-01-25T10:44:31.573Z,101719.66
2023-01-25T10:47:37.757Z,101704.97
2023-01-25T10:50:43.916Z,101714.41
2023-01-25T10:53:58.891Z,101711.84
2023-01-25T10:57:02.467Z,101714.75
2023-01-25T11:00:11.429Z,101702.19
2023-01-25T11:03:22.942Z,101701.75
2023-01-25T11:06:47.182Z,101686.78
2023-01-25T11:09:50.101Z,101700.09
2023-01-25T11:13:12.602Z,101690.59
2023-01-25T11:16:40.411Z,101691.88
2023-01-25T11:19:44.252Z,101681.22
2023-01-25T11:22:57.830Z,101690.44
2023-01-25T11:26:27.787Z,101677.69
2023-01-25T11:29:32.435Z,101680.50
2023-01-25T11:32:39.093Z,101664.78
2023-01-25T11:35:59.408Z,101670.44
2023-01-25T11:39:31.287Z,101660.16
2023-01-25T11:42:47.046Z,101660.97
2023-01-25T11:46:14.585Z,101651.56
2023-01-25T11:49:27.968Z,101646.31
2023-01-25T11:53:02.327Z,101641.69
2023-01-25T11:56:31.631Z,101634.53
2023-01-25T12:00:00.631Z,101622.88
2023-01-25T12:03:16.951Z,101616.69
2023-01-25T12:06:43.546Z,101609.47
2023-01-25T12:09:54.230Z,101610.94
2023-01-25T12:13:22.164Z,101596.53
2023-01-25T12:16:51.509Z,101606.31
2023-01-25T12:20:10.623Z,101600.47
2023-01-25T12:23:46.559Z,101588.53
2023-01-25T12:27:27.480Z,101590.03
2023-01-25T12:31:01.661Z,101588.56
2023-01-25T12:34:15.465Z,101580.63
2023-01-25T12:37:23.627Z,101582.63
2023-01-25T12:40:48.012Z,101577.94
2023-01-25T12:43:59.729Z,101572.06
2023-01-25T12:47:22.377Z,101572.00
2023-01-25T12:50:51.960Z,101572.78
2023-01-25T12:53:59.545Z,101554.63
2023-01-25T12:57:28.199Z,101557.53
2023-01-25T13:00:45.891Z,101550.66
2023-01-25T13:04:21.310Z,101548.41
2023-01-25T13:07:35.577Z,101528.97
2023-01-25T13:10:51.072Z,101542.75
2023-01-25T13:14:15.469Z,101540.44
2023-01-25T13:17:27.156Z,101513.34
2023-01-25T13:20:41.049Z,101530.19
2023-01-25T13:23:48.075Z,101540.97
2023-01-25T13:26:58.351Z,101527.25
2023-01-25T13:30:21.036Z,101533.50
2023-01-25T13:33:43.674Z,101529.00
2023-01-25T13:37:02.084Z,101530.28
2023-01-25T13:40:08.295Z,101533.22
2023-01-25T13:43:12.775Z,101523.88
2023-01-25T13:46:20.836Z,101503.03
2023-01-25T13:49:48.496Z,101420.84
2023-01-25T13:53:19.521Z,101504.38
2023-01-25T13:56:31.455Z,101490.34
2023-01-25T13:59:35.378Z,101495.06
2023-01-25T14:02:41.007Z,101509.47
2023-01-25T14:05:57.329Z,101474.94
2023-01-25T14:09:09.941Z,101469.38
2023-01-25T14:12:41.392Z,101515.56
2023-01-25T14:16:21.304Z,101508.88
2023-01-25T14:19:31.316Z,101504.97
2023-01-25T14:22:38.501Z,101500.69
2023-01-25T14:25:43.204Z,101509.31
2023-01-25T14:28:59.329Z,101469.97
2023-01-25T14:32:05.816Z,101500.06
2023-01-25T14:35:43.141Z,101496.06
2023-01-25T14:38:53.139Z,101490.81
2023-01-25T14:42:01.817Z,101474.25
2023-01-25T14:45:14.668Z,101495.22
2023-01-25T14:48:42.499Z,101496.94
2023-01-25T14:52:20.273Z,101487.72
2023-01-25T14:55:32.304Z,101493.53
2023-01-25T14:58:59.482Z,101483.41
2023-01-25T15:02:49.348Z,101490.00
2023-01-25T15:06:13.445Z,101473.44
2023-01-25T15:09:55.203Z,101485.31
2023-01-25T15:13:34.769Z,101481.59
2023-01-25T15:17:01.995Z,101458.59
2023-01-25T15:20:43.870Z,101494.66
2023-01-25T15:24:13.178Z,101451.75
2023-01-25T15:27:35.601Z,101486.50
2023-01-25T15:30:43.825Z,101478.47
2023-01-25T15:33:59.008Z,101484.72
2023-01-25T15:37:11.733Z,101486.66
2023-01-25T15:40:27.417Z,101487.25
2023-01-25T15:43:50.918Z,101486.72
2023-01-25T15:47:08.287Z,101448.91
2023-01-25T15:50:31.622Z,101488.94
2023-01-25T15:54:09.031Z,101479.66
2023-01-25T15:57:44.286Z,101491.44
2023-01-25T16:01:15.827Z,101487.88
2023-01-25T16:04:44.525Z,101492.25
2023-01-25T16:07:56.030Z,101475.41
2023-01-25T16:11:17.947Z,101457.03
2023-01-25T16:14:59.281Z,101488.38
2023-01-25T16:18:19.539Z,101475.25
2023-01-25T16:21:46.292Z,101492.66
2023-01-25T16:25:26.516Z,101484.78
2023-01-25T16:29:15.955Z,101475.78
2023-01-25T16:32:54.342Z,101469.16
2023-01-25T16:36:40.043Z,101471.53
2023-01-25T16:39:59.750Z,101458.69
2023-01-25T16:43:18.026Z,101460.88
2023-01-25T16:46:42.953Z,101455.78
2023-01-25T16:50:28.789Z,101449.16
2023-01-25T16:54:16.484Z,101458.41
2023-01-25T16:57:53.832Z,101442.53
2023-01-25T17:01:14.669Z,101422.44
2023-01-25T17:04:36.150Z,101450.72
2023-01-25T17:07:53.781Z,101451.69
2023-01-25T17:11:11.081Z,101450.31
2023-01-25T17:14:26.499Z,101447.66
2023-01-25T17:17:57.134Z,101436.22
2023-01-25T17:21:11.774Z,101418.28
2023-01-25T17:24:24.649Z,101431.25
2023-01-25T17:27:54.309Z,101434.81
2023-01-25T17:31:26.290Z,101444.34
2023-01-25T17:34:47.520Z,101445.31
2023-01-25T17:38:00.654Z,101432.59
2023-01-25T17:41:21.213Z,101426.81
2023-01-25T17:44:38.302Z,101421.88
2023-01-25T17:47:53.610Z,101408.38
2023-01-25T17:51:27.295Z,101417.72
2023-01-25T17:55:05.605Z,101423.38
2023-01-25T17:59:04.162Z,101422.03
2023-01-25T18:03:09.776Z,101406.16
2023-01-25T18:06:51.957Z,101415.94
2023-01-25T18:10:08.612Z,101407.53
2023-01-25T18:17:11.138Z,101404.22
2023-01-25T18:20:33.740Z,101399.78
2023-01-25T18:24:17.949Z,101382.94
2023-01-25T18:28:05.292Z,101385.16
2023-01-25T18:35:29.528Z,101382.41
2023-01-25T18:39:19.769Z,101363.94
2023-01-25T18:42:58.745Z,101344.88
2023-01-25T18:46:33.567Z,101371.50
2023-01-25T18:50:20.650Z,101375.66
2023-01-25T18:54:08.861Z,101368.63
2023-01-25T18:57:50.777Z,101354.94
2023-01-25T19:01:34.816Z,101356.72
2023-01-25T19:04:54.214Z,101342.66
2023-01-25T19:08:05.675Z,101341.28
2023-01-25T19:15:18.870Z,101330.69
2023-01-25T19:18:42.824Z,101306.41
2023-01-25T19:26:07.627Z,101298.53
2023-01-25T19:30:04.067Z,101315.19
2023-01-25T19:37:16.848Z,101298.09
2023-01-25T19:40:32.929Z,101304.03
2023-01-25T19:43:50.851Z,101304.03
2023-01-25T19:47:11.483Z,101288.00
2023-01-25T19:51:07.111Z,101264.69
2023-01-25T19:54:44.808Z,101289.63
2023-01-25T19:58:18.562Z,101283.16
2023-01-25T20:02:04.676Z,101267.28
2023-01-25T20:06:00.050Z,101259.84
2023-01-25T20:17:27.522Z,101221.38
2023-01-25T20:21:07.905Z,101267.00
2023-01-25T20:24:49.504Z,101260.91
2023-01-25T20:28:25.442Z,101263.66
2023-01-25T20:32:35.352Z,101256.94
2023-01-25T20:36:21.803Z,101248.75
2023-01-25T20:40:12.390Z,101249.47
2023-01-25T20:44:29.942Z,101244.91
2023-01-25T20:48:16.842Z,101231.00
2023-01-25T20:52:07.970Z,101224.09
2023-01-25T20:56:02.554Z,101243.25
2023-01-25T20:59:30.850Z,101209.63
2023-01-25T21:03:25.592Z,101225.16
2023-01-25T21:07:28.955Z,101236.03
2023-01-25T21:11:04.594Z,101234.25
2023-01-25T21:14:37.053Z,101233.59
2023-01-25T21:18:40.001Z,101225.44
2023-01-25T21:22:15.929Z,101225.84
2023-01-25T21:25:58.967Z,101232.88
2023-01-25T21:29:35.359Z,101222.53
2023-01-25T21:33:05.168Z,101215.88
2023-01-25T21:36:22.428Z,101214.38
2023-01-25T21:40:05.278Z,101168.94
2023-01-25T21:43:41.877Z,101212.88
2023-01-25T21:47:29.955Z,101210.00
2023-01-25T21:51:23.503Z,101214.81
2023-01-25T21:54:58.429Z,101209.28
2023-01-25T21:58:26.386Z,101213.56
2023-01-25T22:02:25.123Z,101198.91
2023-01-25T22:06:23.533Z,101188.72
2023-01-25T22:10:21.214Z,101190.34
2023-01-25T22:14:27.453Z,101166.09
2023-01-25T22:18:09.027Z,101162.78
2023-01-25T22:25:48.860Z,101169.09
2023-01-25T22:33:47.549Z,101157.09
2023-01-25T22:37:38.049Z,101150.47
2023-01-25T22:41:12.453Z,101133.50
2023-01-25T22:44:44.290Z,101129.66
2023-01-25T22:48:24.640Z,101144.38
2023-01-25T22:56:35.359Z,101140.72
2023-01-25T23:00:19.180Z,101118.16
2023-01-25T23:04:19.774Z,101123.09
2023-01-25T23:08:15.571Z,101100.81
2023-01-25T23:12:08.619Z,101097.06
2023-01-25T23:16:12.382Z,101119.19
2023-01-25T23:20:07.519Z,101109.00
2023-01-25T23:23:29.589Z,101095.38
2023-01-25T23:26:49.941Z,101107.00
2023-01-25T23:30:14.090Z,101092.69
2023-01-25T23:33:45.922Z,101093.41
2023-01-25T23:37:05.112Z,101095.88
2023-01-25T23:40:37.447Z,101088.47
2023-01-25T23:43:56.372Z,101079.91
2023-01-25T23:47:15.564Z,101052.13
2023-01-25T23:50:50.911Z,101076.31
2023-01-25T23:54:23.336Z,101076.44
2023-01-25T23:57:37.014Z,101060.91
